sensor_id;sensor_type;location;lat;lon;timestamp;pressure;altitude;pressure_sealevel;temperature;humidity
74893;BME280;63446;56.272;43.922;2023-09-12T00:00:16;101106.50;;;11.21;75.74
74893;BME280;63446;56.272;43.922;2023-09-12T00:02:42;101108.91;;;11.23;75.77
74893;BME280;63446;56.272;43.922;2023-09-12T00:05:08;101105.47;;;11.22;75.77
74893;BME280;63446;56.272;43.922;2023-09-12T00:07:35;101113.41;;;11.22;75.74
74893;BME280;63446;56.272;43.922;2023-09-12T00:10:02;101113.13;;;11.19;75.50
74893;BME280;63446;56.272;43.922;2023-09-12T00:12:29;101119.44;;;11.18;75.29
74893;BME280;63446;56.272;43.922;2023-09-12T00:14:56;101108.03;;;11.12;75.43
74893;BME280;63446;56.272;43.922;2023-09-12T00:17:22;101109.59;;;11.08;75.20
74893;BME280;63446;56.272;43.922;2023-09-12T00:19:48;101123.88;;;11.07;75.19
74893;BME280;63446;56.272;43.922;2023-09-12T00:22:14;101132.84;;;11.06;75.16
74893;BME280;63446;56.272;43.922;2023-09-12T00:24:40;101122.78;;;11.03;75.04
74893;BME280;63446;56.272;43.922;2023-09-12T00:27:07;101119.59;;;11.01;75.10
74893;BME280;63446;56.272;43.922;2023-09-12T00:29:33;101115.59;;;10.98;74.93
74893;BME280;63446;56.272;43.922;2023-09-12T00:31:59;101116.91;;;10.96;75.10
74893;BME280;63446;56.272;43.922;2023-09-12T00:34:25;101122.44;;;10.94;74.91
74893;BME280;63446;56.272;43.922;2023-09-12T00:36:50;101131.13;;;10.90;74.99
74893;BME280;63446;56.272;43.922;2023-09-12T00:39:16;101129.53;;;10.89;74.98
74893;BME280;63446;56.272;43.922;2023-09-12T00:41:43;101127.91;;;10.83;74.84
74893;BME280;63446;56.272;43.922;2023-09-12T00:44:10;101129.75;;;10.82;74.82
74893;BME280;63446;56.272;43.922;2023-09-12T00:46:36;101129.22;;;10.80;74.93
74893;BME280;63446;56.272;43.922;2023-09-12T00:49:03;101122.31;;;10.79;75.03
74893;BME280;63446;56.272;43.922;2023-09-12T00:51:30;101126.28;;;10.77;75.03
74893;BME280;63446;56.272;43.922;2023-09-12T00:53:57;101136.28;;;10.74;74.70
74893;BME280;63446;56.272;43.922;2023-09-12T00:56:23;101137.56;;;10.72;74.57
74893;BME280;63446;56.272;43.922;2023-09-12T00:58:50;101139.69;;;10.70;74.85
74893;BME280;63446;56.272;43.922;2023-09-12T01:01:21;101137.84;;;10.70;74.69
74893;BME280;63446;56.272;43.922;2023-09-12T01:03:48;101141.75;;;10.68;74.75
74893;BME280;63446;56.272;43.922;2023-09-12T01:06:16;101142.03;;;10.66;74.61
74893;BME280;63446;56.272;43.922;2023-09-12T01:08:45;101130.88;;;10.64;74.69
74893;BME280;63446;56.272;43.922;2023-09-12T01:11:12;101141.47;;;10.64;74.72
74893;BME280;63446;56.272;43.922;2023-09-12T01:13:40;101148.88;;;10.62;74.54
74893;BME280;63446;56.272;43.922;2023-09-12T01:16:06;101142.47;;;10.58;74.58
74893;BME280;63446;56.272;43.922;2023-09-12T01:18:32;101142.47;;;10.58;74.50
74893;BME280;63446;56.272;43.922;2023-09-12T01:26:49;101152.44;;;10.51;74.46
74893;BME280;63446;56.272;43.922;2023-09-12T01:29:22;101143.41;;;10.47;74.45
74893;BME280;63446;56.272;43.922;2023-09-12T01:31:49;101150.56;;;10.46;74.40
74893;BME280;63446;56.272;43.922;2023-09-12T01:34:17;101156.06;;;10.45;74.38
74893;BME280;63446;56.272;43.922;2023-09-12T01:36:47;101158.97;;;10.43;74.23
74893;BME280;63446;56.272;43.922;2023-09-12T01:39:13;101170.59;;;10.42;74.27
74893;BME280;63446;56.272;43.922;2023-09-12T01:41:40;101166.59;;;10.40;74.22
74893;BME280;63446;56.272;43.922;2023-09-12T01:44:09;101170.28;;;10.39;74.34
74893;BME280;63446;56.272;43.922;2023-09-12T01:46:37;101167.06;;;10.37;74.08
74893;BME280;63446;56.272;43.922;2023-09-12T01:49:04;101162.84;;;10.36;74.17
74893;BME280;63446;56.272;43.922;2023-09-12T01:51:31;101163.91;;;10.35;74.22
74893;BME280;63446;56.272;43.922;2023-09-12T01:53:58;101165.19;;;10.32;74.23
74893;BME280;63446;56.272;43.922;2023-09-12T01:56:24;101176.53;;;10.33;74.15
74893;BME280;63446;56.272;43.922;2023-09-12T01:58:51;101165.44;;;10.31;74.26
74893;BME280;63446;56.272;43.922;2023-09-12T02:01:17;101167.28;;;10.30;74.21
74893;BME280;63446;56.272;43.922;2023-09-12T02:03:43;101179.94;;;10.28;74.47
74893;BME280;63446;56.272;43.922;2023-09-12T02:06:09;101179.13;;;10.27;74.27
74893;BME280;63446;56.272;43.922;2023-09-12T02:08:35;101179.13;;;10.27;74.22
74893;BME280;63446;56.272;43.922;2023-09-12T02:11:00;101185.69;;;10.25;74.18
74893;BME280;63446;56.272;43.922;2023-09-12T02:13:27;101192.56;;;10.26;74.24
74893;BME280;63446;56.272;43.922;2023-09-12T02:16:01;101188.56;;;10.23;74.11
74893;BME280;63446;56.272;43.922;2023-09-12T02:18:28;101190.97;;;10.25;74.18
74893;BME280;63446;56.272;43.922;2023-09-12T02:20:54;101202.56;;;10.24;74.08
74893;BME280;63446;56.272;43.922;2023-09-12T02:23:23;101209.69;;;10.23;74.16
74893;BME280;63446;56.272;43.922;2023-09-12T02:25:49;101210.50;;;10.24;74.12
74893;BME280;63446;56.272;43.922;2023-09-12T02:28:15;101206.00;;;10.24;74.05
74893;BME280;63446;56.272;43.922;2023-09-12T02:30:41;101209.25;;;10.26;74.07
74893;BME280;63446;56.272;43.922;2023-09-12T02:33:07;101215.88;;;10.29;74.05
74893;BME280;63446;56.272;43.922;2023-09-12T02:35:33;101222.50;;;10.32;74.12
74893;BME280;63446;56.272;43.922;2023-09-12T02:37:59;101219.38;;;10.35;74.10
74893;BME280;63446;56.272;43.922;2023-09-12T02:40:25;101222.56;;;10.37;73.94
74893;BME280;63446;56.272;43.922;2023-09-12T02:42:52;101228.47;;;10.44;73.80
74893;BME280;63446;56.272;43.922;2023-09-12T02:45:18;101227.72;;;10.48;73.85
74893;BME280;63446;56.272;43.922;2023-09-12T02:47:44;101231.25;;;10.54;73.50
74893;BME280;63446;56.272;43.922;2023-09-12T02:50:11;101232.38;;;10.63;73.33
74893;BME280;63446;56.272;43.922;2023-09-12T02:52:38;101227.72;;;10.70;73.05
74893;BME280;63446;56.272;43.922;2023-09-12T02:55:04;101230.47;;;10.81;72.69
74893;BME280;63446;56.272;43.922;2023-09-12T02:57:30;101238.56;;;10.96;72.57
74893;BME280;63446;56.272;43.922;2023-09-12T02:59:56;101245.19;;;11.25;71.81
74893;BME280;63446;56.272;43.922;2023-09-12T03:02:22;101244.84;;;11.49;71.52
74893;BME280;63446;56.272;43.922;2023-09-12T03:04:48;101249.94;;;11.88;70.58
74893;BME280;63446;56.272;43.922;2023-09-12T03:07:14;101243.25;;;12.23;70.15
74893;BME280;63446;56.272;43.922;2023-09-12T03:09:39;101246.03;;;12.53;69.42
74893;BME280;63446;56.272;43.922;2023-09-12T03:12:05;101243.97;;;12.76;68.79
74893;BME280;63446;56.272;43.922;2023-09-12T03:14:32;101251.94;;;12.91;68.35
74893;BME280;63446;56.272;43.922;2023-09-12T03:16:58;101252.25;;;13.00;67.89
74893;BME280;63446;56.272;43.922;2023-09-12T03:19:24;101255.47;;;13.07;67.70
74893;BME280;63446;56.272;43.922;2023-09-12T03:21:50;101258.63;;;13.14;67.51
74893;BME280;63446;56.272;43.922;2023-09-12T03:24:16;101265.84;;;13.24;67.19
74893;BME280;63446;56.272;43.922;2023-09-12T03:26:44;101271.19;;;13.34;66.97
74893;BME280;63446;56.272;43.922;2023-09-12T03:29:10;101263.19;;;13.44;66.92
74893;BME280;63446;56.272;43.922;2023-09-12T03:31:36;101268.25;;;13.56;66.72
74893;BME280;63446;56.272;43.922;2023-09-12T03:34:02;101267.72;;;13.59;66.28
74893;BME280;63446;56.272;43.922;2023-09-12T03:36:28;101268.00;;;13.73;66.33
74893;BME280;63446;56.272;43.922;2023-09-12T03:38:54;101273.56;;;13.81;65.88
74893;BME280;63446;56.272;43.922;2023-09-12T03:41:20;101271.69;;;13.92;65.57
74893;BME280;63446;56.272;43.922;2023-09-12T03:43:53;101278.31;;;14.00;65.49
74893;BME280;63446;56.272;43.922;2023-09-12T03:46:19;101271.09;;;14.05;65.38
74893;BME280;63446;56.272;43.922;2023-09-12T03:48:44;101286.78;;;14.12;65.24
74893;BME280;63446;56.272;43.922;2023-09-12T03:51:12;101278.53;;;14.13;65.04
74893;BME280;63446;56.272;43.922;2023-09-12T03:53:38;101291.81;;;14.13;65.18
74893;BME280;63446;56.272;43.922;2023-09-12T03:56:04;101288.38;;;14.13;64.87
74893;BME280;63446;56.272;43.922;2023-09-12T03:58:32;101301.38;;;14.25;64.85
74893;BME280;63446;56.272;43.922;2023-09-12T04:00:58;101295.88;;;14.76;63.98
74893;BME280;63446;56.272;43.922;2023-09-12T04:03:24;101295.47;;;15.47;62.57
74893;BME280;63446;56.272;43.922;2023-09-12T04:05:50;101295.81;;;15.99;61.64
74893;BME280;63446;56.272;43.922;2023-09-12T04:08:17;101295.63;;;16.43;60.55
74893;BME280;63446;56.272;43.922;2023-09-12T04:10:43;101295.50;;;16.77;59.82
74893;BME280;63446;56.272;43.922;2023-09-12T04:13:09;101299.75;;;16.97;59.35
74893;BME280;63446;56.272;43.922;2023-09-12T04:15:35;101295.44;;;17.01;59.11
74893;BME280;63446;56.272;43.922;2023-09-12T04:18:02;101315.34;;;17.09;58.89
74893;BME280;63446;56.272;43.922;2023-09-12T04:20:29;101307.34;;;17.09;58.88
74893;BME280;63446;56.272;43.922;2023-09-12T04:22:54;101310.53;;;17.11;58.90
74893;BME280;63446;56.272;43.922;2023-09-12T04:25:20;101312.34;;;17.16;59.02
74893;BME280;63446;56.272;43.922;2023-09-12T04:27:46;101311.16;;;17.22;58.64
74893;BME280;63446;56.272;43.922;2023-09-12T04:30:12;101299.84;;;17.30;58.44
74893;BME280;63446;56.272;43.922;2023-09-12T04:32:38;101307.09;;;17.43;58.30
74893;BME280;63446;56.272;43.922;2023-09-12T04:35:04;101309.41;;;17.50;58.33
74893;BME280;63446;56.272;43.922;2023-09-12T04:37:31;101300.50;;;17.54;58.17
74893;BME280;63446;56.272;43.922;2023-09-12T04:39:57;101306.84;;;17.58;58.33
74893;BME280;63446;56.272;43.922;2023-09-12T04:42:23;101310.03;;;17.61;57.95
74893;BME280;63446;56.272;43.922;2023-09-12T04:44:49;101309.94;;;17.66;58.12
74893;BME280;63446;56.272;43.922;2023-09-12T04:47:15;101310.50;;;17.81;57.76
74893;BME280;63446;56.272;43.922;2023-09-12T04:49:43;101310.44;;;18.00;57.08
74893;BME280;63446;56.272;43.922;2023-09-12T04:52:09;101305.91;;;18.15;56.98
74893;BME280;63446;56.272;43.922;2023-09-12T04:54:35;101310.38;;;18.19;56.57
74893;BME280;63446;56.272;43.922;2023-09-12T04:57:03;101305.22;;;18.23;56.41
74893;BME280;63446;56.272;43.922;2023-09-12T04:59:29;101315.63;;;18.24;56.42
74893;BME280;63446;56.272;43.922;2023-09-12T05:01:55;101316.22;;;18.21;56.30
74893;BME280;63446;56.272;43.922;2023-09-12T05:04:21;101320.88;;;18.16;56.25
74893;BME280;63446;56.272;43.922;2023-09-12T05:06:47;101320.56;;;18.03;56.38
74893;BME280;63446;56.272;43.922;2023-09-12T05:09:13;101305.28;;;17.90;56.49
74893;BME280;63446;56.272;43.922;2023-09-12T05:11:39;101315.50;;;17.88;56.72
74893;BME280;63446;56.272;43.922;2023-09-12T05:14:05;101314.59;;;17.93;56.70
74893;BME280;63446;56.272;43.922;2023-09-12T05:16:31;101323.53;;;18.02;56.41
74893;BME280;63446;56.272;43.922;2023-09-12T05:18:57;101328.09;;;18.15;56.14
74893;BME280;63446;56.272;43.922;2023-09-12T05:21:23;101325.63;;;18.33;55.81
74893;BME280;63446;56.272;43.922;2023-09-12T05:23:49;101323.06;;;18.55;55.68
74893;BME280;63446;56.272;43.922;2023-09-12T05:26:15;101329.31;;;18.78;55.27
74893;BME280;63446;56.272;43.922;2023-09-12T05:28:41;101333.03;;;19.05;54.92
74893;BME280;63446;56.272;43.922;2023-09-12T05:31:07;101323.00;;;19.33;54.25
74893;BME280;63446;56.272;43.922;2023-09-12T05:33:35;101326.38;;;19.61;53.77
74893;BME280;63446;56.272;43.922;2023-09-12T05:36:01;101323.13;;;19.95;52.97
74893;BME280;63446;56.272;43.922;2023-09-12T05:38:28;101321.88;;;20.41;51.99
74893;BME280;63446;56.272;43.922;2023-09-12T05:40:53;101325.66;;;20.88;51.33
74893;BME280;63446;56.272;43.922;2023-09-12T05:43:19;101329.31;;;21.36;50.28
74893;BME280;63446;56.272;43.922;2023-09-12T05:45:45;101325.16;;;21.73;49.31
74893;BME280;63446;56.272;43.922;2023-09-12T05:48:11;101330.75;;;21.98;48.96
74893;BME280;63446;56.272;43.922;2023-09-12T05:50:37;101335.34;;;22.14;48.79
74893;BME280;63446;56.272;43.922;2023-09-12T05:53:03;101340.03;;;22.26;48.42
74893;BME280;63446;56.272;43.922;2023-09-12T05:55:29;101335.59;;;22.30;48.45
74893;BME280;63446;56.272;43.922;2023-09-12T05:57:55;101343.97;;;22.29;48.46
74893;BME280;63446;56.272;43.922;2023-09-12T06:00:21;101331.81;;;22.23;48.36
74893;BME280;63446;56.272;43.922;2023-09-12T06:02:48;101335.94;;;22.11;48.33
74893;BME280;63446;56.272;43.922;2023-09-12T06:05:15;101338.81;;;22.06;48.49
74893;BME280;63446;56.272;43.922;2023-09-12T06:07:41;101335.34;;;21.97;48.37
74893;BME280;63446;56.272;43.922;2023-09-12T06:10:10;101328.28;;;21.84;48.46
74893;BME280;63446;56.272;43.922;2023-09-12T06:12:36;101336.06;;;21.77;48.76
74893;BME280;63446;56.272;43.922;2023-09-12T06:15:03;101349.03;;;21.75;48.80
74893;BME280;63446;56.272;43.922;2023-09-12T06:17:32;101343.97;;;21.73;48.86
74893;BME280;63446;56.272;43.922;2023-09-12T06:19:58;101342.72;;;21.70;48.85
74893;BME280;63446;56.272;43.922;2023-09-12T06:22:24;101339.41;;;21.65;48.79
74893;BME280;63446;56.272;43.922;2023-09-12T06:24:51;101348.09;;;21.62;48.67
74893;BME280;63446;56.272;43.922;2023-09-12T06:27:17;101346.03;;;21.59;49.04
74893;BME280;63446;56.272;43.922;2023-09-12T06:29:45;101357.59;;;21.59;49.21
74893;BME280;63446;56.272;43.922;2023-09-12T06:32:22;101351.91;;;21.61;49.52
74893;BME280;63446;56.272;43.922;2023-09-12T06:34:48;101347.47;;;21.65;49.42
74893;BME280;63446;56.272;43.922;2023-09-12T06:37:14;101357.59;;;21.68;49.24
74893;BME280;63446;56.272;43.922;2023-09-12T06:39:41;101357.91;;;21.66;49.22
74893;BME280;63446;56.272;43.922;2023-09-12T06:42:08;101349.84;;;21.66;49.32
74893;BME280;63446;56.272;43.922;2023-09-12T06:44:34;101350.31;;;21.60;49.22
74893;BME280;63446;56.272;43.922;2023-09-12T06:47:00;101351.59;;;21.54;49.36
74893;BME280;63446;56.272;43.922;2023-09-12T06:49:25;101358.88;;;21.44;48.96
74893;BME280;63446;56.272;43.922;2023-09-12T06:51:51;101355.91;;;21.37;48.64
74893;BME280;63446;56.272;43.922;2023-09-12T06:54:17;101354.28;;;21.28;48.58
74893;BME280;63446;56.272;43.922;2023-09-12T06:56:43;101358.88;;;21.18;48.62
74893;BME280;63446;56.272;43.922;2023-09-12T06:59:09;101361.53;;;21.10;48.97
74893;BME280;63446;56.272;43.922;2023-09-12T07:01:35;101364.06;;;20.97;48.96
74893;BME280;63446;56.272;43.922;2023-09-12T07:04:01;101370.66;;;20.83;49.40
74893;BME280;63446;56.272;43.922;2023-09-12T07:06:28;101365.28;;;20.74;49.78
74893;BME280;63446;56.272;43.922;2023-09-12T07:08:55;101363.22;;;20.71;50.13
74893;BME280;63446;56.272;43.922;2023-09-12T07:11:21;101364.50;;;20.73;50.14
74893;BME280;63446;56.272;43.922;2023-09-12T07:13:47;101366.22;;;20.78;50.36
74893;BME280;63446;56.272;43.922;2023-09-12T07:16:13;101368.28;;;20.81;49.87
74893;BME280;63446;56.272;43.922;2023-09-12T07:18:39;101372.09;;;20.80;49.56
74893;BME280;63446;56.272;43.922;2023-09-12T07:21:05;101372.53;;;20.73;49.46
74893;BME280;63446;56.272;43.922;2023-09-12T07:23:33;101371.09;;;20.67;49.66
74893;BME280;63446;56.272;43.922;2023-09-12T07:25:59;101371.41;;;20.66;49.74
74893;BME280;63446;56.272;43.922;2023-09-12T07:28:26;101372.22;;;20.66;49.95
74893;BME280;63446;56.272;43.922;2023-09-12T07:30:53;101371.25;;;20.71;49.70
74893;BME280;63446;56.272;43.922;2023-09-12T07:33:20;101375.72;;;20.76;49.82
74893;BME280;63446;56.272;43.922;2023-09-12T07:35:47;101370.50;;;20.79;49.79
74893;BME280;63446;56.272;43.922;2023-09-12T07:38:13;101374.63;;;20.85;49.91
74893;BME280;63446;56.272;43.922;2023-09-12T07:40:41;101376.69;;;20.88;49.72
74893;BME280;63446;56.272;43.922;2023-09-12T07:43:09;101371.78;;;20.90;49.52
74893;BME280;63446;56.272;43.922;2023-09-12T07:45:35;101371.31;;;20.88;49.63
74893;BME280;63446;56.272;43.922;2023-09-12T07:48:06;101365.94;;;20.88;49.59
74893;BME280;63446;56.272;43.922;2023-09-12T07:50:32;101369.75;;;20.87;49.41
74893;BME280;63446;56.272;43.922;2023-09-12T07:52:58;101374.94;;;20.84;49.02
74893;BME280;63446;56.272;43.922;2023-09-12T07:55:24;101380.59;;;20.73;48.97
74893;BME280;63446;56.272;43.922;2023-09-12T07:57:50;101374.28;;;20.69;49.04
74893;BME280;63446;56.272;43.922;2023-09-12T08:00:16;101379.16;;;20.67;49.12
74893;BME280;63446;56.272;43.922;2023-09-12T08:02:42;101374.44;;;20.64;48.84
74893;BME280;63446;56.272;43.922;2023-09-12T08:05:08;101372.81;;;20.63;48.61
74893;BME280;63446;56.272;43.922;2023-09-12T08:07:34;101372.19;;;20.58;48.43
74893;BME280;63446;56.272;43.922;2023-09-12T08:10:00;101369.66;;;20.53;48.45
74893;BME280;63446;56.272;43.922;2023-09-12T08:12:28;101370.53;;;20.48;48.23
74893;BME280;63446;56.272;43.922;2023-09-12T08:14:54;101373.03;;;20.44;48.05
74893;BME280;63446;56.272;43.922;2023-09-12T08:17:22;101372.56;;;20.42;48.10
74893;BME280;63446;56.272;43.922;2023-09-12T08:19:48;101368.50;;;20.45;48.30
74893;BME280;63446;56.272;43.922;2023-09-12T08:22:14;101373.22;;;20.48;48.13
74893;BME280;63446;56.272;43.922;2023-09-12T08:24:40;101381.00;;;20.50;48.28
74893;BME280;63446;56.272;43.922;2023-09-12T08:27:07;101375.63;;;20.50;47.94
74893;BME280;63446;56.272;43.922;2023-09-12T08:29:33;101371.84;;;20.51;47.75
74893;BME280;63446;56.272;43.922;2023-09-12T08:32:00;101373.75;;;20.50;47.76
74893;BME280;63446;56.272;43.922;2023-09-12T08:34:26;101372.94;;;20.50;47.69
74893;BME280;63446;56.272;43.922;2023-09-12T08:36:52;101365.16;;;20.48;47.56
74893;BME280;63446;56.272;43.922;2023-09-12T08:39:25;101378.72;;;20.43;47.64
74893;BME280;63446;56.272;43.922;2023-09-12T08:41:51;101366.41;;;20.42;47.60
74893;BME280;63446;56.272;43.922;2023-09-12T08:44:18;101369.09;;;20.42;47.81
74893;BME280;63446;56.272;43.922;2023-09-12T08:46:45;101369.56;;;20.44;47.63
74893;BME280;63446;56.272;43.922;2023-09-12T08:49:11;101367.69;;;20.44;47.08
74893;BME280;63446;56.272;43.922;2023-09-12T08:51:38;101363.75;;;20.42;47.03
74893;BME280;63446;56.272;43.922;2023-09-12T08:54:05;101368.94;;;20.38;46.93
74893;BME280;63446;56.272;43.922;2023-09-12T08:56:32;101368.16;;;20.38;46.81
74893;BME280;63446;56.272;43.922;2023-09-12T08:58:58;101362.00;;;20.37;46.71
74893;BME280;63446;56.272;43.922;2023-09-12T09:01:25;101359.31;;;20.37;46.75
74893;BME280;63446;56.272;43.922;2023-09-12T09:03:53;101358.81;;;20.35;46.91
74893;BME280;63446;56.272;43.922;2023-09-12T09:06:21;101362.94;;;20.41;46.56
74893;BME280;63446;56.272;43.922;2023-09-12T09:08:49;101355.97;;;20.40;46.07
74893;BME280;63446;56.272;43.922;2023-09-12T09:11:15;101356.13;;;20.35;45.90
74893;BME280;63446;56.272;43.922;2023-09-12T09:13:41;101346.63;;;20.29;45.66
74893;BME280;63446;56.272;43.922;2023-09-12T09:16:14;101346.94;;;20.28;45.85
74893;BME280;63446;56.272;43.922;2023-09-12T09:18:59;101349.94;;;20.26;46.08
74893;BME280;63446;56.272;43.922;2023-09-12T09:21:28;101363.00;;;20.19;45.12
74893;BME280;63446;56.272;43.922;2023-09-12T09:23:58;101353.16;;;20.06;45.24
74893;BME280;63446;56.272;43.922;2023-09-12T09:26:24;101358.59;;;19.92;45.22
74893;BME280;63446;56.272;43.922;2023-09-12T09:29:07;101353.31;;;19.78;45.42
74893;BME280;63446;56.272;43.922;2023-09-12T09:31:34;101351.50;;;19.65;45.29
74893;BME280;63446;56.272;43.922;2023-09-12T09:34:00;101349.22;;;19.58;45.25
74893;BME280;63446;56.272;43.922;2023-09-12T09:36:31;101359.56;;;19.51;45.23
74893;BME280;63446;56.272;43.922;2023-09-12T09:38:58;101347.56;;;19.48;45.41
74893;BME280;63446;56.272;43.922;2023-09-12T09:41:26;101362.84;;;19.48;45.47
74893;BME280;63446;56.272;43.922;2023-09-12T09:43:52;101351.34;;;19.47;45.54
74893;BME280;63446;56.272;43.922;2023-09-12T09:46:18;101355.44;;;19.45;46.05
74893;BME280;63446;56.272;43.922;2023-09-12T09:48:51;101349.25;;;19.44;46.19
74893;BME280;63446;56.272;43.922;2023-09-12T09:51:18;101357.31;;;19.44;46.15
74893;BME280;63446;56.272;43.922;2023-09-12T09:53:45;101358.91;;;19.45;46.46
74893;BME280;63446;56.272;43.922;2023-09-12T09:56:15;101354.34;;;19.46;46.15
74893;BME280;63446;56.272;43.922;2023-09-12T09:58:54;101347.56;;;19.48;46.06
74893;BME280;63446;56.272;43.922;2023-09-12T10:01:32;101355.19;;;19.55;46.14
74893;BME280;63446;56.272;43.922;2023-09-12T10:04:07;101357.16;;;19.63;45.44
74893;BME280;63446;56.272;43.922;2023-09-12T10:06:35;101350.16;;;19.76;45.01
74893;BME280;63446;56.272;43.922;2023-09-12T10:09:09;101346.91;;;19.88;44.79
74893;BME280;63446;56.272;43.922;2023-09-12T10:11:37;101349.50;;;20.02;44.58
74893;BME280;63446;56.272;43.922;2023-09-12T10:14:05;101355.25;;;20.17;44.14
74893;BME280;63446;56.272;43.922;2023-09-12T10:16:36;101353.09;;;20.28;43.88
74893;BME280;63446;56.272;43.922;2023-09-12T10:21:49;101348.16;;;20.53;43.26
74893;BME280;63446;56.272;43.922;2023-09-12T10:24:15;101358.44;;;20.59;43.14
74893;BME280;63446;56.272;43.922;2023-09-12T10:26:44;101363.69;;;20.64;42.95
74893;BME280;63446;56.272;43.922;2023-09-12T10:29:13;101354.69;;;20.69;42.83
74893;BME280;63446;56.272;43.922;2023-09-12T10:31:40;101346.19;;;20.76;43.03
74893;BME280;63446;56.272;43.922;2023-09-12T10:34:06;101351.56;;;20.76;43.21
74893;BME280;63446;56.272;43.922;2023-09-12T10:36:44;101346.47;;;20.83;43.02
74893;BME280;63446;56.272;43.922;2023-09-12T10:39:12;101350.94;;;20.87;43.10
74893;BME280;63446;56.272;43.922;2023-09-12T10:41:40;101345.41;;;20.92;42.90
74893;BME280;63446;56.272;43.922;2023-09-12T10:44:12;101345.25;;;20.97;42.92
74893;BME280;63446;56.272;43.922;2023-09-12T10:46:41;101343.66;;;21.05;43.17
74893;BME280;63446;56.272;43.922;2023-09-12T10:49:08;101357.75;;;21.19;43.02
74893;BME280;63446;56.272;43.922;2023-09-12T10:51:41;101344.97;;;21.34;42.42
74893;BME280;63446;56.272;43.922;2023-09-12T10:54:09;101341.16;;;21.43;42.49
74893;BME280;63446;56.272;43.922;2023-09-12T10:56:37;101348.13;;;21.53;42.60
74893;BME280;63446;56.272;43.922;2023-09-12T11:01:31;101347.63;;;21.68;41.96
74893;BME280;63446;56.272;43.922;2023-09-12T11:03:57;101348.56;;;21.64;41.92
74893;BME280;63446;56.272;43.922;2023-09-12T11:06:32;101345.59;;;21.57;41.87
74893;BME280;63446;56.272;43.922;2023-09-12T11:09:24;101346.41;;;21.49;41.85
74893;BME280;63446;56.272;43.922;2023-09-12T11:11:59;101339.41;;;21.48;42.09
74893;BME280;63446;56.272;43.922;2023-09-12T11:14:30;101344.34;;;21.45;41.66
74893;BME280;63446;56.272;43.922;2023-09-12T11:19:51;101340.53;;;21.38;41.92
74893;BME280;63446;56.272;43.922;2023-09-12T11:22:25;101346.06;;;21.33;41.84
74893;BME280;63446;56.272;43.922;2023-09-12T11:24:54;101351.75;;;21.31;41.67
74893;BME280;63446;56.272;43.922;2023-09-12T11:27:43;101350.78;;;21.27;41.31
74893;BME280;63446;56.272;43.922;2023-09-12T11:30:10;101348.13;;;21.18;41.33
74893;BME280;63446;56.272;43.922;2023-09-12T11:32:36;101352.38;;;21.11;41.18
74893;BME280;63446;56.272;43.922;2023-09-12T11:35:07;101342.41;;;21.03;41.20
74893;BME280;63446;56.272;43.922;2023-09-12T11:37:34;101341.59;;;20.93;41.33
74893;BME280;63446;56.272;43.922;2023-09-12T11:42:59;101346.63;;;20.78;41.55
74893;BME280;63446;56.272;43.922;2023-09-12T11:45:28;101340.63;;;20.72;41.31
74893;BME280;63446;56.272;43.922;2023-09-12T11:47:54;101338.41;;;20.65;41.80
74893;BME280;63446;56.272;43.922;2023-09-12T11:56:35;101341.47;;;20.41;42.06
74893;BME280;63446;56.272;43.922;2023-09-12T11:59:01;101341.75;;;20.31;41.77
74893;BME280;63446;56.272;43.922;2023-09-12T12:01:27;101336.63;;;20.21;41.90
74893;BME280;63446;56.272;43.922;2023-09-12T12:03:54;101336.28;;;20.14;42.02
74893;BME280;63446;56.272;43.922;2023-09-12T12:06:22;101327.09;;;20.06;41.77
74893;BME280;63446;56.272;43.922;2023-09-12T12:08:48;101334.19;;;20.02;42.03
74893;BME280;63446;56.272;43.922;2023-09-12T12:11:14;101334.00;;;19.98;41.89
74893;BME280;63446;56.272;43.922;2023-09-12T12:17:21;101330.06;;;19.96;42.36
74893;BME280;63446;56.272;43.922;2023-09-12T12:19:49;101333.84;;;19.95;42.44
74893;BME280;63446;56.272;43.922;2023-09-12T12:22:15;101325.31;;;19.93;42.31
74893;BME280;63446;56.272;43.922;2023-09-12T12:28:22;101335.72;;;19.94;42.72
74893;BME280;63446;56.272;43.922;2023-09-12T12:30:51;101329.75;;;19.97;42.88
74893;BME280;63446;56.272;43.922;2023-09-12T12:33:20;101324.28;;;20.03;42.54
74893;BME280;63446;56.272;43.922;2023-09-12T12:35:46;101319.88;;;20.07;42.84
74893;BME280;63446;56.272;43.922;2023-09-12T12:38:13;101325.56;;;20.14;42.66
74893;BME280;63446;56.272;43.922;2023-09-12T12:40:39;101327.34;;;20.18;42.70
74893;BME280;63446;56.272;43.922;2023-09-12T12:43:17;101322.94;;;20.22;42.53
74893;BME280;63446;56.272;43.922;2023-09-12T12:45:54;101324.50;;;20.23;42.46
74893;BME280;63446;56.272;43.922;2023-09-12T12:48:35;101329.56;;;20.25;42.35
74893;BME280;63446;56.272;43.922;2023-09-12T12:54:43;101330.47;;;20.20;42.72
74893;BME280;63446;56.272;43.922;2023-09-12T12:57:10;101326.38;;;20.14;42.75
74893;BME280;63446;56.272;43.922;2023-09-12T12:59:45;101339.63;;;20.11;43.09
74893;BME280;63446;56.272;43.922;2023-09-12T13:02:11;101334.06;;;20.07;43.39
74893;BME280;63446;56.272;43.922;2023-09-12T13:04:37;101337.03;;;20.06;43.39
74893;BME280;63446;56.272;43.922;2023-09-12T13:07:04;101338.75;;;20.02;43.19
74893;BME280;63446;56.272;43.922;2023-09-12T13:09:29;101337.00;;;19.97;43.68
74893;BME280;63446;56.272;43.922;2023-09-12T13:11:55;101343.47;;;19.96;43.77
74893;BME280;63446;56.272;43.922;2023-09-12T13:14:22;101340.78;;;19.96;43.83